createdAt,value
2022-11-16T00:03:11.634Z,81.85
2022-11-16T00:08:16.457Z,74.78
2022-11-16T00:13:19.682Z,76.63
2022-11-16T00:18:23.959Z,76.97
2022-11-16T00:23:27.485Z,73.82
2022-11-16T00:28:30.622Z,77.10
2022-11-16T00:33:34.114Z,74.55
2022-11-16T00:38:37.097Z,83.43
2022-11-16T00:43:41.320Z,73.38
2022-11-16T00:48:44.252Z,81.85
2022-11-16T00:53:47.083Z,85.75
2022-11-16T00:58:51.603Z,81.28
2022-11-16T01:03:54.582Z,85.82
2022-11-16T01:08:57.469Z,71.43
2022-11-16T01:14:02.472Z,44.25
2022-11-16T01:19:05.377Z,54.05
2022-11-16T01:24:09.575Z,62.20
2022-11-16T01:29:12.451Z,51.40
2022-11-16T01:34:20.708Z,47.95
2022-11-16T01:39:24.810Z,57.83
2022-11-16T01:44:33.555Z,73.20
2022-11-16T01:49:48.568Z,66.22
2022-11-16T01:54:55.041Z,69.88
2022-11-16T02:05:19.399Z,60.47
2022-11-16T02:10:48.628Z,64.25
2022-11-16T02:16:13.095Z,63.38
2022-11-16T02:21:16.117Z,59.22
2022-11-16T02:26:19.196Z,73.05
2022-11-16T02:31:25.276Z,69.03
2022-11-16T02:36:28.297Z,70.88
2022-11-16T02:41:33.073Z,66.20
2022-11-16T02:51:42.557Z,67.35
2022-11-16T02:57:13.101Z,71.78
2022-11-16T03:02:19.144Z,76.22
2022-11-16T03:07:24.892Z,66.40
2022-11-16T03:12:32.799Z,61.05
2022-11-16T03:17:40.169Z,63.00
2022-11-16T03:22:44.606Z,59.90
2022-11-16T03:27:48.545Z,44.15
2022-11-16T03:33:09.762Z,35.33
2022-11-16T03:38:15.490Z,37.33
2022-11-16T03:43:21.457Z,41.60
2022-11-16T03:48:24.626Z,31.67
2022-11-16T03:53:28.232Z,25.02
2022-11-16T03:58:31.716Z,32.15
2022-11-16T04:03:35.066Z,42.10
2022-11-16T04:08:57.053Z,38.83
2022-11-16T04:14:19.057Z,44.50
2022-11-16T04:19:40.596Z,43.05
2022-11-16T04:24:45.353Z,39.58
2022-11-16T04:29:49.550Z,40.03
2022-11-16T04:35:11.797Z,30.43
2022-11-16T04:40:15.342Z,29.60
2022-11-16T04:45:37.898Z,29.67
2022-11-16T04:50:41.802Z,27.90
2022-11-16T04:55:44.746Z,25.20
2022-11-16T05:00:49.465Z,21.73
2022-11-16T05:05:52.418Z,20.25
2022-11-16T05:10:55.370Z,20.05
2022-11-16T05:15:59.947Z,21.08
2022-11-16T05:21:03.136Z,15.88
2022-11-16T05:26:12.113Z,22.13
2022-11-16T05:31:16.481Z,14.05
2022-11-16T05:36:19.705Z,17.55
2022-11-16T05:41:24.220Z,21.92
2022-11-16T05:46:27.309Z,18.17
2022-11-16T05:51:33.283Z,23.00
2022-11-16T05:56:36.949Z,22.10
2022-11-16T06:01:39.991Z,12.30
2022-11-16T06:06:44.664Z,18.02
2022-11-16T06:11:48.607Z,23.55
2022-11-16T06:16:52.579Z,20.25
2022-11-16T06:21:57.511Z,16.90
2022-11-16T06:27:04.408Z,18.25
2022-11-16T06:32:10.441Z,19.65
2022-11-16T06:37:13.342Z,21.05
2022-11-16T06:42:17.037Z,24.92
2022-11-16T06:47:38.332Z,38.58
2022-11-16T06:52:41.498Z,21.05
2022-11-16T06:57:46.307Z,26.95
2022-11-16T07:02:50.903Z,24.63
2022-11-16T07:07:56.310Z,25.45
2022-11-16T07:13:02.560Z,31.38
2022-11-16T07:18:08.012Z,25.83
2022-11-16T07:23:14.338Z,24.63
2022-11-16T07:28:21.233Z,36.13
2022-11-16T07:33:24.521Z,29.40
2022-11-16T07:38:47.846Z,27.23
2022-11-16T07:43:53.354Z,26.80
2022-11-16T07:49:07.060Z,25.95
2022-11-16T07:54:25.955Z,23.92
2022-11-16T07:59:47.398Z,21.73
2022-11-16T08:04:51.461Z,28.77
2022-11-16T08:09:59.479Z,15.82
2022-11-16T08:15:02.486Z,21.98
2022-11-16T08:20:08.434Z,24.35
2022-11-16T08:25:11.806Z,19.33
2022-11-16T08:30:17.673Z,19.33
2022-11-16T08:35:22.328Z,20.25
2022-11-16T08:40:25.373Z,16.42
2022-11-16T08:45:28.356Z,16.02
2022-11-16T08:50:55.568Z,22.10
2022-11-16T08:55:58.233Z,17.73
2022-11-16T09:01:08.062Z,25.70
2022-11-16T09:06:11.330Z,11.43
2022-11-16T09:11:18.765Z,16.92
2022-11-16T09:16:22.530Z,22.83
2022-11-16T09:21:26.778Z,54.22
2022-11-16T09:26:29.737Z,18.52
2022-11-16T09:31:34.902Z,22.23
2022-11-16T09:36:37.874Z,17.33
2022-11-16T09:41:43.862Z,13.93
2022-11-16T09:46:48.848Z,25.58
2022-11-16T09:51:53.862Z,12.38
2022-11-16T09:57:00.805Z,14.88
2022-11-16T10:02:14.425Z,18.17
2022-11-16T10:07:35.239Z,15.45
2022-11-16T10:12:50.916Z,18.30
2022-11-16T10:17:59.928Z,18.85
2022-11-16T10:23:10.079Z,24.33
2022-11-16T10:28:15.986Z,18.30
2022-11-16T10:33:20.398Z,19.50
2022-11-16T10:38:33.359Z,16.63
2022-11-16T10:43:37.522Z,22.52
2022-11-16T10:49:00.926Z,17.65
2022-11-16T10:54:13.287Z,16.77
2022-11-16T10:59:19.000Z,23.10
2022-11-16T11:04:22.349Z,17.05
2022-11-16T11:09:44.364Z,27.63
2022-11-16T11:15:11.080Z,20.35
2022-11-16T11:20:17.691Z,13.05
2022-11-16T11:25:22.634Z,25.77
2022-11-16T11:30:25.587Z,18.27
2022-11-16T11:35:30.227Z,14.85
2022-11-16T11:45:46.242Z,11.27
2022-11-16T11:50:51.775Z,17.15
2022-11-16T11:56:01.182Z,32.60
2022-11-16T12:01:24.854Z,10.93
2022-11-16T12:06:46.918Z,11.60
2022-11-16T12:12:16.173Z,13.52
2022-11-16T12:17:52.893Z,19.00
2022-11-16T12:23:16.933Z,15.43
2022-11-16T12:28:30.583Z,14.95
2022-11-16T12:33:54.573Z,11.90
2022-11-16T12:44:02.169Z,11.23
2022-11-16T12:49:24.322Z,20.10
2022-11-16T12:54:35.769Z,12.68
2022-11-16T13:00:11.168Z,14.52
2022-11-16T13:05:20.246Z,17.50
2022-11-16T13:10:27.889Z,10.27
2022-11-16T13:15:39.491Z,13.57
2022-11-16T13:21:00.928Z,19.77
2022-11-16T13:26:10.348Z,12.68
2022-11-16T13:31:23.274Z,11.50
2022-11-16T13:36:45.391Z,16.23
2022-11-16T13:41:50.729Z,14.47
2022-11-16T13:52:17.345Z,18.67
2022-11-16T13:57:27.972Z,11.98
2022-11-16T14:02:50.822Z,16.17
2022-11-16T14:07:53.631Z,15.93
2022-11-16T14:12:58.050Z,13.77
2022-11-16T14:18:22.400Z,12.13
2022-11-16T14:23:40.565Z,18.70
2022-11-16T14:29:03.390Z,16.42
2022-11-16T14:34:06.542Z,14.73
2022-11-16T14:39:29.434Z,10.73
2022-11-16T14:44:34.699Z,9.98
2022-11-16T14:49:46.559Z,13.05
2022-11-16T14:54:52.818Z,11.43
2022-11-16T15:00:15.313Z,12.38
2022-11-16T15:05:19.880Z,10.15
2022-11-16T15:10:25.517Z,15.80
2022-11-16T15:15:30.251Z,10.40
2022-11-16T15:20:35.495Z,8.57
2022-11-16T15:25:57.929Z,20.95
2022-11-16T15:31:05.437Z,12.70
2022-11-16T15:36:27.069Z,11.63
2022-11-16T15:41:30.429Z,20.25
2022-11-16T15:46:34.840Z,9.35
2022-11-16T15:51:44.412Z,9.90
2022-11-16T15:56:48.177Z,15.18
2022-11-16T16:01:51.145Z,14.33
2022-11-16T16:07:01.363Z,13.43
2022-11-16T16:12:23.965Z,11.85
2022-11-16T16:17:27.742Z,13.30
2022-11-16T16:22:32.547Z,13.37
2022-11-16T16:27:40.729Z,6.32
2022-11-16T16:32:43.587Z,10.00
2022-11-16T16:37:49.023Z,12.25
2022-11-16T16:42:53.280Z,10.75
2022-11-16T16:47:56.331Z,9.88
2022-11-16T16:53:01.246Z,18.50
2022-11-16T16:58:04.283Z,10.70
2022-11-16T17:03:07.479Z,10.75
2022-11-16T17:08:12.341Z,11.80
2022-11-16T17:13:15.223Z,11.45
2022-11-16T17:18:18.093Z,14.73
2022-11-16T17:23:20.990Z,21.42
2022-11-16T17:28:25.106Z,13.05
2022-11-16T17:33:28.056Z,15.27
2022-11-16T17:38:31.578Z,14.60
2022-11-16T17:43:35.767Z,15.38
2022-11-16T17:48:39.776Z,16.48
2022-11-16T17:53:45.762Z,10.40
2022-11-16T17:58:52.178Z,19.23
2022-11-16T18:03:57.272Z,17.92
2022-11-16T18:09:01.140Z,15.00
2022-11-16T18:14:05.695Z,15.48
2022-11-16T18:19:10.418Z,12.40
2022-11-16T18:29:28.260Z,12.95
2022-11-16T18:34:32.938Z,16.45
2022-11-16T18:39:35.756Z,23.00
2022-11-16T18:44:41.219Z,16.23
2022-11-16T18:49:44.181Z,14.87
2022-11-16T18:54:47.116Z,15.10
2022-11-16T18:59:50.000Z,19.25
2022-11-16T19:04:54.982Z,20.40
2022-11-16T19:09:58.151Z,14.70
2022-11-16T19:15:01.052Z,21.42
2022-11-16T19:20:05.199Z,26.25
2022-11-16T19:25:08.477Z,20.20
2022-11-16T19:30:11.796Z,14.30
2022-11-16T19:35:16.350Z,19.35
2022-11-16T19:40:24.819Z,12.57
2022-11-16T19:45:29.227Z,17.63
2022-11-16T19:50:32.289Z,19.73
2022-11-16T19:55:35.144Z,18.02
2022-11-16T20:00:38.448Z,11.10
2022-11-16T20:05:42.434Z,19.83
2022-11-16T20:10:46.593Z,20.40
2022-11-16T20:15:50.205Z,21.20
2022-11-16T20:20:54.094Z,19.73
2022-11-16T20:25:57.051Z,19.60
2022-11-16T20:30:59.951Z,20.33
2022-11-16T20:36:04.704Z,18.55
2022-11-16T20:41:08.451Z,14.43
2022-11-16T20:46:14.020Z,17.13
2022-11-16T20:51:18.235Z,13.25
2022-11-16T20:56:21.911Z,15.27
2022-11-16T21:01:31.449Z,17.80
2022-11-16T21:06:35.671Z,17.13
2022-11-16T21:11:57.217Z,11.53
2022-11-16T21:17:00.218Z,10.60
2022-11-16T21:22:03.229Z,16.55
2022-11-16T21:27:06.367Z,11.50
2022-11-16T21:32:09.314Z,11.80
2022-11-16T21:37:14.236Z,14.23
2022-11-16T21:42:17.237Z,20.52
2022-11-16T21:47:21.263Z,13.90
2022-11-16T21:52:26.539Z,16.75
2022-11-16T21:57:30.108Z,12.05
2022-11-16T22:02:34.560Z,17.42
2022-11-16T22:07:38.048Z,13.75
2022-11-16T22:12:41.022Z,15.90
2022-11-16T22:17:44.463Z,11.70
2022-11-16T22:22:48.122Z,9.25
2022-11-16T22:28:19.227Z,14.23
2022-11-16T22:33:17.800Z,11.68
2022-11-16T22:38:20.648Z,11.63
2022-11-16T22:43:27.748Z,11.98
2022-11-16T22:48:43.372Z,17.73
2022-11-16T22:53:49.355Z,9.45
2022-11-16T22:58:52.218Z,18.42
2022-11-16T23:03:55.345Z,16.30
2022-11-16T23:08:58.229Z,14.18
2022-11-16T23:14:19.700Z,16.67
2022-11-16T23:19:41.899Z,12.05
2022-11-16T23:25:03.936Z,13.52
2022-11-16T23:30:13.209Z,15.10
2022-11-16T23:35:17.753Z,14.18
2022-11-16T23:40:22.464Z,10.63
2022-11-16T23:50:47.349Z,12.57
2022-11-16T23:55:51.372Z,14.43
